sensor_id;sensor_type;location;lat;lon;timestamp;temperature;humidity
21037;DHT22;10677;50.942;4.028;2023-05-23T00:00:25;13.10;99.90
21037;DHT22;10677;50.942;4.028;2023-05-23T00:02:51;13.10;99.90
21037;DHT22;10677;50.942;4.028;2023-05-23T00:05:17;13.10;99.90
21037;DHT22;10677;50.942;4.028;2023-05-23T00:07:44;13.20;99.90
21037;DHT22;10677;50.942;4.028;2023-05-23T00:10:10;13.10;99.90
21037;DHT22;10677;50.942;4.028;2023-05-23T00:12:36;13.20;99.90
21037;DHT22;10677;50.942;4.028;2023-05-23T00:15:04;13.10;99.90
21037;DHT22;10677;50.942;4.028;2023-05-23T00:17:32;13.10;99.90
21037;DHT22;10677;50.942;4.028;2023-05-23T00:19:58;13.10;99.90
21037;DHT22;10677;50.942;4.028;2023-05-23T00:22:24;13.20;99.90
21037;DHT22;10677;50.942;4.028;2023-05-23T00:24:49;13.20;99.90
21037;DHT22;10677;50.942;4.028;2023-05-23T00:27:15;13.20;99.90
21037;DHT22;10677;50.942;4.028;2023-05-23T00:29:41;13.20;99.90
21037;DHT22;10677;50.942;4.028;2023-05-23T00:32:07;13.20;99.90
21037;DHT22;10677;50.942;4.028;2023-05-23T00:34:33;13.20;99.90
21037;DHT22;10677;50.942;4.028;2023-05-23T00:36:59;13.20;99.90
21037;DHT22;10677;50.942;4.028;2023-05-23T00:39:26;13.20;99.90
21037;DHT22;10677;50.942;4.028;2023-05-23T00:41:52;13.20;99.90
21037;DHT22;10677;50.942;4.028;2023-05-23T00:44:18;13.20;99.90
21037;DHT22;10677;50.942;4.028;2023-05-23T00:46:46;13.20;99.90
21037;DHT22;10677;50.942;4.028;2023-05-23T00:49:13;13.20;99.90
21037;DHT22;10677;50.942;4.028;2023-05-23T00:51:39;13.30;99.90
21037;DHT22;10677;50.942;4.028;2023-05-23T00:54:07;13.30;99.90
21037;DHT22;10677;50.942;4.028;2023-05-23T00:56:34;13.30;99.90
21037;DHT22;10677;50.942;4.028;2023-05-23T00:59:01;13.30;99.90
21037;DHT22;10677;50.942;4.028;2023-05-23T01:01:26;13.40;99.90
21037;DHT22;10677;50.942;4.028;2023-05-23T01:03:52;13.40;99.90
21037;DHT22;10677;50.942;4.028;2023-05-23T01:06:19;13.40;99.90
21037;DHT22;10677;50.942;4.028;2023-05-23T01:08:44;13.40;99.90
21037;DHT22;10677;50.942;4.028;2023-05-23T01:11:27;13.40;99.90
21037;DHT22;10677;50.942;4.028;2023-05-23T01:14:08;13.40;99.90
21037;DHT22;10677;50.942;4.028;2023-05-23T01:16:58;13.50;99.90
21037;DHT22;10677;50.942;4.028;2023-05-23T01:19:53;13.50;99.90
21037;DHT22;10677;50.942;4.028;2023-05-23T01:28:13;13.40;99.90
21037;DHT22;10677;50.942;4.028;2023-05-23T01:30:41;13.50;99.90
21037;DHT22;10677;50.942;4.028;2023-05-23T01:33:10;13.50;99.90
21037;DHT22;10677;50.942;4.028;2023-05-23T01:35:37;13.50;99.90
21037;DHT22;10677;50.942;4.028;2023-05-23T01:38:04;13.50;99.90
21037;DHT22;10677;50.942;4.028;2023-05-23T01:40:30;13.50;99.90
21037;DHT22;10677;50.942;4.028;2023-05-23T01:42:56;13.60;99.90
21037;DHT22;10677;50.942;4.028;2023-05-23T01:45:24;13.50;99.90
21037;DHT22;10677;50.942;4.028;2023-05-23T01:47:51;13.50;99.90
21037;DHT22;10677;50.942;4.028;2023-05-23T01:50:18;13.50;99.90
21037;DHT22;10677;50.942;4.028;2023-05-23T01:52:46;13.50;99.90
21037;DHT22;10677;50.942;4.028;2023-05-23T01:55:13;13.50;99.90
21037;DHT22;10677;50.942;4.028;2023-05-23T01:57:40;13.50;99.90
21037;DHT22;10677;50.942;4.028;2023-05-23T02:00:06;13.60;99.90
21037;DHT22;10677;50.942;4.028;2023-05-23T02:02:35;13.50;99.90
21037;DHT22;10677;50.942;4.028;2023-05-23T02:05:01;13.50;99.90
21037;DHT22;10677;50.942;4.028;2023-05-23T02:07:27;13.50;99.90
21037;DHT22;10677;50.942;4.028;2023-05-23T02:09:53;13.50;99.90
21037;DHT22;10677;50.942;4.028;2023-05-23T02:12:18;13.50;99.90
21037;DHT22;10677;50.942;4.028;2023-05-23T02:14:44;13.60;99.90
21037;DHT22;10677;50.942;4.028;2023-05-23T02:17:09;13.50;99.90
21037;DHT22;10677;50.942;4.028;2023-05-23T02:19:35;13.50;99.90
21037;DHT22;10677;50.942;4.028;2023-05-23T02:22:01;13.50;99.90
21037;DHT22;10677;50.942;4.028;2023-05-23T02:24:28;13.40;99.90
21037;DHT22;10677;50.942;4.028;2023-05-23T02:26:53;13.40;99.90
21037;DHT22;10677;50.942;4.028;2023-05-23T02:29:19;13.40;99.90
21037;DHT22;10677;50.942;4.028;2023-05-23T02:31:45;13.40;99.90
21037;DHT22;10677;50.942;4.028;2023-05-23T02:34:11;13.50;99.90
21037;DHT22;10677;50.942;4.028;2023-05-23T02:36:36;13.40;99.90
21037;DHT22;10677;50.942;4.028;2023-05-23T02:39:04;13.40;99.90
21037;DHT22;10677;50.942;4.028;2023-05-23T02:41:30;13.50;99.90
21037;DHT22;10677;50.942;4.028;2023-05-23T02:43:56;13.50;99.90
21037;DHT22;10677;50.942;4.028;2023-05-23T02:46:22;13.50;99.90
21037;DHT22;10677;50.942;4.028;2023-05-23T02:48:49;13.40;99.90
21037;DHT22;10677;50.942;4.028;2023-05-23T02:51:15;13.30;99.90
21037;DHT22;10677;50.942;4.028;2023-05-23T02:53:40;13.20;99.90
21037;DHT22;10677;50.942;4.028;2023-05-23T02:56:07;13.20;99.90
21037;DHT22;10677;50.942;4.028;2023-05-23T02:58:33;13.10;99.90
21037;DHT22;10677;50.942;4.028;2023-05-23T03:01:03;13.10;99.90
21037;DHT22;10677;50.942;4.028;2023-05-23T03:03:29;13.10;99.90
21037;DHT22;10677;50.942;4.028;2023-05-23T03:05:58;13.20;99.90
21037;DHT22;10677;50.942;4.028;2023-05-23T03:08:24;13.10;99.90
21037;DHT22;10677;50.942;4.028;2023-05-23T03:10:50;13.10;99.90
21037;DHT22;10677;50.942;4.028;2023-05-23T03:13:16;13.10;99.90
21037;DHT22;10677;50.942;4.028;2023-05-23T03:15:42;13.10;99.90
21037;DHT22;10677;50.942;4.028;2023-05-23T03:18:08;13.10;99.90
21037;DHT22;10677;50.942;4.028;2023-05-23T03:20:34;13.10;99.90
21037;DHT22;10677;50.942;4.028;2023-05-23T03:23:00;13.10;99.90
21037;DHT22;10677;50.942;4.028;2023-05-23T03:25:25;13.10;99.90
21037;DHT22;10677;50.942;4.028;2023-05-23T03:27:51;13.10;99.90
21037;DHT22;10677;50.942;4.028;2023-05-23T03:30:17;13.10;99.90
21037;DHT22;10677;50.942;4.028;2023-05-23T03:32:42;13.10;99.90
21037;DHT22;10677;50.942;4.028;2023-05-23T03:35:08;13.10;99.90
21037;DHT22;10677;50.942;4.028;2023-05-23T03:37:34;13.10;99.90
21037;DHT22;10677;50.942;4.028;2023-05-23T03:40:00;13.20;99.90
21037;DHT22;10677;50.942;4.028;2023-05-23T03:42:27;13.20;99.90
21037;DHT22;10677;50.942;4.028;2023-05-23T03:44:52;13.20;99.90
21037;DHT22;10677;50.942;4.028;2023-05-23T03:47:18;13.20;99.90
21037;DHT22;10677;50.942;4.028;2023-05-23T03:49:44;13.30;99.90
21037;DHT22;10677;50.942;4.028;2023-05-23T03:52:10;13.30;99.90
21037;DHT22;10677;50.942;4.028;2023-05-23T03:54:36;13.40;99.90
21037;DHT22;10677;50.942;4.028;2023-05-23T03:57:02;13.40;99.90
21037;DHT22;10677;50.942;4.028;2023-05-23T03:59:28;13.60;99.90
21037;DHT22;10677;50.942;4.028;2023-05-23T04:01:54;13.60;99.90
21037;DHT22;10677;50.942;4.028;2023-05-23T04:04:23;13.50;99.90
21037;DHT22;10677;50.942;4.028;2023-05-23T04:06:49;13.50;99.90
21037;DHT22;10677;50.942;4.028;2023-05-23T04:09:16;13.50;99.90
21037;DHT22;10677;50.942;4.028;2023-05-23T04:11:42;13.60;99.90
21037;DHT22;10677;50.942;4.028;2023-05-23T04:14:08;13.60;99.90
21037;DHT22;10677;50.942;4.028;2023-05-23T04:16:35;13.60;99.90
21037;DHT22;10677;50.942;4.028;2023-05-23T04:19:01;13.60;99.90
21037;DHT22;10677;50.942;4.028;2023-05-23T04:21:29;13.60;99.90
21037;DHT22;10677;50.942;4.028;2023-05-23T04:23:55;13.60;99.90
21037;DHT22;10677;50.942;4.028;2023-05-23T04:26:21;13.60;99.90
21037;DHT22;10677;50.942;4.028;2023-05-23T04:28:47;13.60;99.90
21037;DHT22;10677;50.942;4.028;2023-05-23T04:31:13;13.60;99.90
21037;DHT22;10677;50.942;4.028;2023-05-23T04:33:39;13.70;99.90
21037;DHT22;10677;50.942;4.028;2023-05-23T04:36:06;13.60;99.90
21037;DHT22;10677;50.942;4.028;2023-05-23T04:38:35;13.50;99.90
21037;DHT22;10677;50.942;4.028;2023-05-23T04:41:04;13.40;99.90
21037;DHT22;10677;50.942;4.028;2023-05-23T04:43:30;13.40;99.90
21037;DHT22;10677;50.942;4.028;2023-05-23T04:45:58;13.30;99.90
21037;DHT22;10677;50.942;4.028;2023-05-23T04:48:24;13.30;99.90
21037;DHT22;10677;50.942;4.028;2023-05-23T04:50:51;13.30;99.90
21037;DHT22;10677;50.942;4.028;2023-05-23T04:53:23;13.30;99.90
21037;DHT22;10677;50.942;4.028;2023-05-23T04:55:49;13.30;99.90
21037;DHT22;10677;50.942;4.028;2023-05-23T04:58:15;13.30;99.90
21037;DHT22;10677;50.942;4.028;2023-05-23T05:00:40;13.30;99.90
21037;DHT22;10677;50.942;4.028;2023-05-23T05:03:06;13.40;99.90
21037;DHT22;10677;50.942;4.028;2023-05-23T05:05:34;13.40;99.90
21037;DHT22;10677;50.942;4.028;2023-05-23T05:08:00;13.30;99.90
21037;DHT22;10677;50.942;4.028;2023-05-23T05:10:25;13.30;99.90
21037;DHT22;10677;50.942;4.028;2023-05-23T05:12:52;13.30;99.90
21037;DHT22;10677;50.942;4.028;2023-05-23T05:15:18;13.30;99.90
21037;DHT22;10677;50.942;4.028;2023-05-23T05:17:45;13.30;99.90
21037;DHT22;10677;50.942;4.028;2023-05-23T05:20:11;13.30;99.90
21037;DHT22;10677;50.942;4.028;2023-05-23T05:22:38;13.20;99.90
21037;DHT22;10677;50.942;4.028;2023-05-23T05:25:09;13.20;99.90
21037;DHT22;10677;50.942;4.028;2023-05-23T05:27:35;13.20;99.90
21037;DHT22;10677;50.942;4.028;2023-05-23T05:30:07;13.20;99.90
21037;DHT22;10677;50.942;4.028;2023-05-23T05:32:33;13.20;99.90
21037;DHT22;10677;50.942;4.028;2023-05-23T05:35:00;13.20;99.90
21037;DHT22;10677;50.942;4.028;2023-05-23T05:37:26;13.20;99.90
21037;DHT22;10677;50.942;4.028;2023-05-23T05:39:52;13.20;99.90
21037;DHT22;10677;50.942;4.028;2023-05-23T05:42:19;13.10;99.90
21037;DHT22;10677;50.942;4.028;2023-05-23T05:44:48;12.90;99.90
21037;DHT22;10677;50.942;4.028;2023-05-23T05:47:14;12.90;99.90
21037;DHT22;10677;50.942;4.028;2023-05-23T05:49:40;12.90;99.90
21037;DHT22;10677;50.942;4.028;2023-05-23T05:52:07;12.90;99.90
21037;DHT22;10677;50.942;4.028;2023-05-23T05:54:34;12.90;99.90
21037;DHT22;10677;50.942;4.028;2023-05-23T05:57:00;12.90;99.90
21037;DHT22;10677;50.942;4.028;2023-05-23T05:59:26;12.80;99.90
21037;DHT22;10677;50.942;4.028;2023-05-23T06:01:52;12.90;99.90
21037;DHT22;10677;50.942;4.028;2023-05-23T06:04:18;12.80;99.90
21037;DHT22;10677;50.942;4.028;2023-05-23T06:06:45;13.00;99.90
21037;DHT22;10677;50.942;4.028;2023-05-23T06:09:10;13.00;99.90
21037;DHT22;10677;50.942;4.028;2023-05-23T06:11:36;13.00;99.90
21037;DHT22;10677;50.942;4.028;2023-05-23T06:14:08;13.10;99.90
21037;DHT22;10677;50.942;4.028;2023-05-23T06:16:35;13.10;99.90
21037;DHT22;10677;50.942;4.028;2023-05-23T06:19:01;13.10;99.90
21037;DHT22;10677;50.942;4.028;2023-05-23T06:21:26;13.10;99.90
21037;DHT22;10677;50.942;4.028;2023-05-23T06:23:52;13.10;99.90
21037;DHT22;10677;50.942;4.028;2023-05-23T06:26:18;13.20;99.90
21037;DHT22;10677;50.942;4.028;2023-05-23T06:28:43;13.30;99.90
21037;DHT22;10677;50.942;4.028;2023-05-23T06:31:09;13.40;99.90
21037;DHT22;10677;50.942;4.028;2023-05-23T06:33:35;13.50;99.90
21037;DHT22;10677;50.942;4.028;2023-05-23T06:36:01;13.40;99.90
21037;DHT22;10677;50.942;4.028;2023-05-23T06:38:30;13.50;99.90
21037;DHT22;10677;50.942;4.028;2023-05-23T06:40:58;13.40;99.90
21037;DHT22;10677;50.942;4.028;2023-05-23T06:43:25;13.40;99.90
21037;DHT22;10677;50.942;4.028;2023-05-23T06:45:52;13.30;99.90
21037;DHT22;10677;50.942;4.028;2023-05-23T06:48:19;13.30;99.90
21037;DHT22;10677;50.942;4.028;2023-05-23T06:50:45;13.40;99.90
21037;DHT22;10677;50.942;4.028;2023-05-23T06:53:11;13.50;99.90
21037;DHT22;10677;50.942;4.028;2023-05-23T06:55:39;13.50;99.90
21037;DHT22;10677;50.942;4.028;2023-05-23T06:58:05;13.40;99.90
21037;DHT22;10677;50.942;4.028;2023-05-23T07:00:31;13.40;99.90
21037;DHT22;10677;50.942;4.028;2023-05-23T07:02:59;13.40;99.90
21037;DHT22;10677;50.942;4.028;2023-05-23T07:05:28;13.50;99.90
21037;DHT22;10677;50.942;4.028;2023-05-23T07:07:55;13.60;99.90
21037;DHT22;10677;50.942;4.028;2023-05-23T07:10:21;13.70;99.90
21037;DHT22;10677;50.942;4.028;2023-05-23T07:12:47;13.80;99.90
21037;DHT22;10677;50.942;4.028;2023-05-23T07:15:13;13.70;99.90
21037;DHT22;10677;50.942;4.028;2023-05-23T07:17:45;13.80;99.90
21037;DHT22;10677;50.942;4.028;2023-05-23T07:20:12;14.00;99.90
21037;DHT22;10677;50.942;4.028;2023-05-23T07:22:38;14.00;99.90
21037;DHT22;10677;50.942;4.028;2023-05-23T07:25:05;13.90;99.90
21037;DHT22;10677;50.942;4.028;2023-05-23T07:27:31;13.70;99.90
21037;DHT22;10677;50.942;4.028;2023-05-23T07:29:57;13.60;99.90
21037;DHT22;10677;50.942;4.028;2023-05-23T07:32:23;13.70;99.90
21037;DHT22;10677;50.942;4.028;2023-05-23T07:34:53;13.80;99.90
21037;DHT22;10677;50.942;4.028;2023-05-23T07:37:19;14.00;99.90
21037;DHT22;10677;50.942;4.028;2023-05-23T07:39:45;13.80;99.90
21037;DHT22;10677;50.942;4.028;2023-05-23T07:42:11;13.80;99.90
21037;DHT22;10677;50.942;4.028;2023-05-23T07:44:37;13.70;99.90
21037;DHT22;10677;50.942;4.028;2023-05-23T07:47:06;13.70;99.90
21037;DHT22;10677;50.942;4.028;2023-05-23T07:49:38;13.90;99.90
21037;DHT22;10677;50.942;4.028;2023-05-23T07:52:04;14.00;99.90
21037;DHT22;10677;50.942;4.028;2023-05-23T07:54:31;13.80;99.90
21037;DHT22;10677;50.942;4.028;2023-05-23T07:57:00;13.70;99.90
21037;DHT22;10677;50.942;4.028;2023-05-23T07:59:26;13.70;99.90
21037;DHT22;10677;50.942;4.028;2023-05-23T08:01:51;13.60;99.90
21037;DHT22;10677;50.942;4.028;2023-05-23T08:04:17;13.60;99.90
21037;DHT22;10677;50.942;4.028;2023-05-23T08:06:43;13.70;99.90
21037;DHT22;10677;50.942;4.028;2023-05-23T08:09:11;13.90;99.90
21037;DHT22;10677;50.942;4.028;2023-05-23T08:11:37;13.80;99.90
21037;DHT22;10677;50.942;4.028;2023-05-23T08:14:03;13.70;99.90
21037;DHT22;10677;50.942;4.028;2023-05-23T08:16:29;13.70;99.90
21037;DHT22;10677;50.942;4.028;2023-05-23T08:18:55;13.80;99.90
21037;DHT22;10677;50.942;4.028;2023-05-23T08:21:23;13.80;99.90
21037;DHT22;10677;50.942;4.028;2023-05-23T08:23:48;13.80;99.90
21037;DHT22;10677;50.942;4.028;2023-05-23T08:26:14;13.80;99.90
21037;DHT22;10677;50.942;4.028;2023-05-23T08:28:40;13.80;99.90
21037;DHT22;10677;50.942;4.028;2023-05-23T08:31:06;13.60;99.90
21037;DHT22;10677;50.942;4.028;2023-05-23T08:33:32;13.70;99.90
21037;DHT22;10677;50.942;4.028;2023-05-23T08:35:58;13.70;99.90
21037;DHT22;10677;50.942;4.028;2023-05-23T08:38:25;13.60;99.90
21037;DHT22;10677;50.942;4.028;2023-05-23T08:40:51;13.40;99.90
21037;DHT22;10677;50.942;4.028;2023-05-23T08:43:22;13.60;99.90
21037;DHT22;10677;50.942;4.028;2023-05-23T08:45:49;13.60;99.90
21037;DHT22;10677;50.942;4.028;2023-05-23T08:48:18;13.70;99.90
21037;DHT22;10677;50.942;4.028;2023-05-23T08:50:47;13.90;99.90
21037;DHT22;10677;50.942;4.028;2023-05-23T08:53:16;14.00;99.90
21037;DHT22;10677;50.942;4.028;2023-05-23T08:55:48;14.10;99.90
21037;DHT22;10677;50.942;4.028;2023-05-23T08:58:17;14.00;99.90
21037;DHT22;10677;50.942;4.028;2023-05-23T09:00:45;13.90;99.90
21037;DHT22;10677;50.942;4.028;2023-05-23T09:03:12;13.80;99.90
21037;DHT22;10677;50.942;4.028;2023-05-23T09:05:39;13.80;99.90
21037;DHT22;10677;50.942;4.028;2023-05-23T09:08:05;13.90;99.90
21037;DHT22;10677;50.942;4.028;2023-05-23T09:10:30;13.90;99.90
21037;DHT22;10677;50.942;4.028;2023-05-23T09:12:56;13.80;99.90
21037;DHT22;10677;50.942;4.028;2023-05-23T09:15:23;13.90;99.90
21037;DHT22;10677;50.942;4.028;2023-05-23T09:17:49;13.90;99.90
21037;DHT22;10677;50.942;4.028;2023-05-23T09:20:16;14.30;99.90
21037;DHT22;10677;50.942;4.028;2023-05-23T09:22:46;14.50;99.90
21037;DHT22;10677;50.942;4.028;2023-05-23T09:25:13;14.50;99.90
21037;DHT22;10677;50.942;4.028;2023-05-23T09:27:39;14.30;99.90
21037;DHT22;10677;50.942;4.028;2023-05-23T09:30:06;14.10;99.90
21037;DHT22;10677;50.942;4.028;2023-05-23T09:32:32;14.10;99.90
21037;DHT22;10677;50.942;4.028;2023-05-23T09:34:59;14.20;99.90
21037;DHT22;10677;50.942;4.028;2023-05-23T09:37:35;14.20;99.90
21037;DHT22;10677;50.942;4.028;2023-05-23T09:40:12;14.30;99.90
21037;DHT22;10677;50.942;4.028;2023-05-23T09:42:44;14.50;99.90
21037;DHT22;10677;50.942;4.028;2023-05-23T09:45:11;14.50;99.90
21037;DHT22;10677;50.942;4.028;2023-05-23T09:47:37;14.60;99.90
21037;DHT22;10677;50.942;4.028;2023-05-23T09:50:03;14.80;99.90
21037;DHT22;10677;50.942;4.028;2023-05-23T09:52:39;15.20;99.90
21037;DHT22;10677;50.942;4.028;2023-05-23T09:55:05;15.20;99.90
21037;DHT22;10677;50.942;4.028;2023-05-23T09:57:34;15.40;99.90
21037;DHT22;10677;50.942;4.028;2023-05-23T10:00:03;15.70;99.90
21037;DHT22;10677;50.942;4.028;2023-05-23T10:05:46;15.60;99.90
21037;DHT22;10677;50.942;4.028;2023-05-23T10:08:34;15.30;99.90
21037;DHT22;10677;50.942;4.028;2023-05-23T10:13:47;15.20;99.90
21037;DHT22;10677;50.942;4.028;2023-05-23T10:16:18;15.30;99.90
21037;DHT22;10677;50.942;4.028;2023-05-23T10:18:44;15.40;99.90
21037;DHT22;10677;50.942;4.028;2023-05-23T10:21:16;15.50;99.90
21037;DHT22;10677;50.942;4.028;2023-05-23T10:23:45;15.60;99.90
21037;DHT22;10677;50.942;4.028;2023-05-23T10:26:12;15.50;99.90
21037;DHT22;10677;50.942;4.028;2023-05-23T10:28:39;15.50;99.90
21037;DHT22;10677;50.942;4.028;2023-05-23T10:31:07;15.90;99.90
21037;DHT22;10677;50.942;4.028;2023-05-23T10:33:39;15.90;99.90
21037;DHT22;10677;50.942;4.028;2023-05-23T10:36:13;16.10;99.90
21037;DHT22;10677;50.942;4.028;2023-05-23T10:38:57;16.00;99.90
21037;DHT22;10677;50.942;4.028;2023-05-23T10:41:48;16.10;99.90
21037;DHT22;10677;50.942;4.028;2023-05-23T10:44:35;16.50;99.90
21037;DHT22;10677;50.942;4.028;2023-05-23T10:47:03;16.50;99.90
21037;DHT22;10677;50.942;4.028;2023-05-23T10:49:45;16.40;99.90
21037;DHT22;10677;50.942;4.028;2023-05-23T10:52:13;16.50;99.90
21037;DHT22;10677;50.942;4.028;2023-05-23T10:55:02;16.40;99.90
21037;DHT22;10677;50.942;4.028;2023-05-23T10:57:37;16.60;99.90
21037;DHT22;10677;50.942;4.028;2023-05-23T11:00:04;16.30;99.90
21037;DHT22;10677;50.942;4.028;2023-05-23T11:02:36;16.30;99.90
21037;DHT22;10677;50.942;4.028;2023-05-23T11:05:22;16.40;99.90
21037;DHT22;10677;50.942;4.028;2023-05-23T11:11:02;17.00;99.90
21037;DHT22;10677;50.942;4.028;2023-05-23T11:13:54;16.50;99.90
21037;DHT22;10677;50.942;4.028;2023-05-23T11:16:41;16.50;99.90
21037;DHT22;10677;50.942;4.028;2023-05-23T11:21:53;16.70;99.90
21037;DHT22;10677;50.942;4.028;2023-05-23T11:24:22;17.00;99.90
21037;DHT22;10677;50.942;4.028;2023-05-23T11:27:10;16.60;99.90
21037;DHT22;10677;50.942;4.028;2023-05-23T11:29:36;16.80;99.90
21037;DHT22;10677;50.942;4.028;2023-05-23T11:32:10;17.00;99.90
21037;DHT22;10677;50.942;4.028;2023-05-23T11:34:37;17.20;99.90
21037;DHT22;10677;50.942;4.028;2023-05-23T11:37:03;17.30;99.90
21037;DHT22;10677;50.942;4.028;2023-05-23T11:39:32;17.10;99.90
21037;DHT22;10677;50.942;4.028;2023-05-23T11:42:02;16.90;99.90
21037;DHT22;10677;50.942;4.028;2023-05-23T11:44:28;17.10;99.90
21037;DHT22;10677;50.942;4.028;2023-05-23T12:37:28;17.40;99.90
21037;DHT22;10677;50.942;4.028;2023-05-23T12:39:54;17.40;99.90
21037;DHT22;10677;50.942;4.028;2023-05-23T12:42:20;17.70;99.90
21037;DHT22;10677;50.942;4.028;2023-05-23T13:36:35;20.40;99.90
21037;DHT22;10677;50.942;4.028;2023-05-23T13:39:01;20.30;99.90
21037;DHT22;10677;50.942;4.028;2023-05-23T13:41:27;20.40;99.90
21037;DHT22;10677;50.942;4.028;2023-05-23T13:43:55;20.30;99.90
21037;DHT22;10677;50.942;4.028;2023-05-23T13:46:21;20.60;99.90
21037;DHT22;10677;50.942;4.028;2023-05-23T13:48:47;21.10;99.90
21037;DHT22;10677;50.942;4.028;2023-05-23T13:51:13;21.20;99.90
21037;DHT22;10677;50.942;4.028;2023-05-23T13:53:38;21.80;99.90
21037;DHT22;10677;50.942;4.028;2023-05-23T13:56:05;22.00;99.90
21037;DHT22;10677;50.942;4.028;2023-05-23T13:58:30;21.30;99.90
21037;DHT22;10677;50.942;4.028;2023-05-23T14:00:56;20.00;99.90
21037;DHT22;10677;50.942;4.028;2023-05-23T14:03:27;20.10;99.90
21037;DHT22;10677;50.942;4.028;2023-05-23T14:05:54;21.10;99.90
21037;DHT22;10677;50.942;4.028;2023-05-23T14:08:20;20.90;99.90
21037;DHT22;10677;50.942;4.028;2023-05-23T14:10:45;20.60;99.90
21037;DHT22;10677;50.942;4.028;2023-05-23T14:13:13;20.90;99.90
21037;DHT22;10677;50.942;4.028;2023-05-23T14:15:38;21.70;99.90
21037;DHT22;10677;50.942;4.028;2023-05-23T14:18:09;22.30;99.90
21037;DHT22;10677;50.942;4.028;2023-05-23T14:20:35;22.40;99.90
21037;DHT22;10677;50.942;4.028;2023-05-23T14:23:02;23.00;99.90
21037;DHT22;10677;50.942;4.028;2023-05-23T14:25:27;21.90;99.90
21037;DHT22;10677;50.942;4.028;2023-05-23T14:27:54;21.30;99.90
21037;DHT22;10677;50.942;4.028;2023-05-23T14:30:19;21.60;99.90
21037;DHT22;10677;50.942;4.028;2023-05-23T14:32:45;22.00;99.90
21037;DHT22;10677;50.942;4.028;2023-05-23T14:35:11;22.10;99.90
21037;DHT22;10677;50.942;4.028;2023-05-23T14:37:37;22.10;99.90
21037;DHT22;10677;50.942;4.028;2023-05-23T14:40:04;22.20;99.90
21037;DHT22;10677;50.942;4.028;2023-05-23T14:42:30;22.40;99.90
21037;DHT22;10677;50.942;4.028;2023-05-23T14:44:56;21.20;99.90
21037;DHT22;10677;50.942;4.028;2023-05-23T14:47:22;21.40;99.90
21037;DHT22;10677;50.942;4.028;2023-05-23T14:49:48;21.90;99.90
21037;DHT22;10677;50.942;4.028;2023-05-23T14:52:13;22.20;99.90
21037;DHT22;10677;50.942;4.028;2023-05-23T14:54:39;22.20;99.90
21037;DHT22;10677;50.942;4.028;2023-05-23T14:57:06;21.90;99.90
21037;DHT22;10677;50.942;4.028;2023-05-23T14:59:33;21.70;99.90
21037;DHT22;10677;50.942;4.028;2023-05-23T15:01:58;21.90;99.90
21037;DHT22;10677;50.942;4.028;2023-05-23T15:04:24;21.10;99.90
21037;DHT22;10677;50.942;4.028;2023-05-23T15:06:51;20.50;99.90
21037;DHT22;10677;50.942;4.028;2023-05-23T15:09:17;20.70;99.90
21037;DHT22;10677;50.942;4.028;2023-05-23T15:11:43;21.50;99.90
21037;DHT22;10677;50.942;4.028;2023-05-23T15:14:11;20.70;99.90
21037;DHT22;10677;50.942;4.028;2023-05-23T15:16:37;20.10;99.90
21037;DHT22;10677;50.942;4.028;2023-05-23T15:19:03;20.10;99.90
21037;DHT22;10677;50.942;4.028;2023-05-23T15:21:30;20.30;99.90
21037;DHT22;10677;50.942;4.028;2023-05-23T15:23:56;21.10;99.90
21037;DHT22;10677;50.942;4.028;2023-05-23T15:26:24;22.70;99.90
21037;DHT22;10677;50.942;4.028;2023-05-23T15:28:50;23.40;99.90
21037;DHT22;10677;50.942;4.028;2023-05-23T15:31:15;22.20;99.90
21037;DHT22;10677;50.942;4.028;2023-05-23T15:33:41;22.00;99.90
21037;DHT22;10677;50.942;4.028;2023-05-23T15:36:07;22.20;99.90
21037;DHT22;10677;50.942;4.028;2023-05-23T15:38:33;22.10;99.90
21037;DHT22;10677;50.942;4.028;2023-05-23T15:40:58;21.20;99.90
21037;DHT22;10677;50.942;4.028;2023-05-23T15:43:24;21.70;99.90
21037;DHT22;10677;50.942;4.028;2023-05-23T15:45:50;20.90;99.90
21037;DHT22;10677;50.942;4.028;2023-05-23T15:48:16;21.60;99.90
21037;DHT22;10677;50.942;4.028;2023-05-23T15:50:42;21.50;99.90
21037;DHT22;10677;50.942;4.028;2023-05-23T15:53:08;21.50;99.90
21037;DHT22;10677;50.942;4.028;2023-05-23T15:55:33;21.90;99.90
21037;DHT22;10677;50.942;4.028;2023-05-23T15:57:59;21.80;99.90
21037;DHT22;10677;50.942;4.028;2023-05-23T16:00:25;21.90;99.90
21037;DHT22;10677;50.942;4.028;2023-05-23T16:02:50;21.40;99.90
21037;DHT22;10677;50.942;4.028;2023-05-23T16:05:16;21.30;99.90
21037;DHT22;10677;50.942;4.028;2023-05-23T16:07:42;21.80;99.90
21037;DHT22;10677;50.942;4.028;2023-05-23T16:10:08;22.20;99.90
21037;DHT22;10677;50.942;4.028;2023-05-23T16:12:34;22.40;99.90
21037;DHT22;10677;50.942;4.028;2023-05-23T16:15:00;21.00;99.90
21037;DHT22;10677;50.942;4.028;2023-05-23T16:17:25;20.80;99.90
21037;DHT22;10677;50.942;4.028;2023-05-23T16:19:51;20.50;99.90
21037;DHT22;10677;50.942;4.028;2023-05-23T16:22:18;20.50;99.90
21037;DHT22;10677;50.942;4.028;2023-05-23T16:24:44;20.70;99.90
21037;DHT22;10677;50.942;4.028;2023-05-23T16:27:10;21.10;99.90
21037;DHT22;10677;50.942;4.028;2023-05-23T16:29:36;21.30;99.90
21037;DHT22;10677;50.942;4.028;2023-05-23T16:32:02;21.80;99.90
21037;DHT22;10677;50.942;4.028;2023-05-23T16:34:28;22.40;99.90
21037;DHT22;10677;50.942;4.028;2023-05-23T16:36:53;21.40;99.90
21037;DHT22;10677;50.942;4.028;2023-05-23T16:39:19;21.10;99.90
21037;DHT22;10677;50.942;4.028;2023-05-23T16:41:45;20.90;99.90
21037;DHT22;10677;50.942;4.028;2023-05-23T16:44:11;21.20;99.90
21037;DHT22;10677;50.942;4.028;2023-05-23T16:46:36;20.30;99.90
21037;DHT22;10677;50.942;4.028;2023-05-23T16:49:02;20.20;99.90
21037;DHT22;10677;50.942;4.028;2023-05-23T16:51:28;20.30;99.90
21037;DHT22;10677;50.942;4.028;2023-05-23T16:53:53;19.80;99.90
21037;DHT22;10677;50.942;4.028;2023-05-23T16:56:19;20.20;99.90
21037;DHT22;10677;50.942;4.028;2023-05-23T16:58:46;20.20;99.90
21037;DHT22;10677;50.942;4.028;2023-05-23T17:01:11;20.30;99.90
21037;DHT22;10677;50.942;4.028;2023-05-23T17:03:38;20.50;99.90
21037;DHT22;10677;50.942;4.028;2023-05-23T17:06:05;20.30;99.90
21037;DHT22;10677;50.942;4.028;2023-05-23T17:08:31;20.00;99.90
21037;DHT22;10677;50.942;4.028;2023-05-23T17:10:57;20.20;99.90
21037;DHT22;10677;50.942;4.028;2023-05-23T17:13:22;20.30;99.90
21037;DHT22;10677;50.942;4.028;2023-05-23T17:15:52;20.20;99.90
21037;DHT22;10677;50.942;4.028;2023-05-23T17:18:18;19.90;99.90
21037;DHT22;10677;50.942;4.028;2023-05-23T17:20:44;20.50;99.90
21037;DHT22;10677;50.942;4.028;2023-05-23T17:23:10;20.50;99.90
21037;DHT22;10677;50.942;4.028;2023-05-23T17:25:37;20.70;99.90
21037;DHT22;10677;50.942;4.028;2023-05-23T17:28:02;20.50;99.90
21037;DHT22;10677;50.942;4.028;2023-05-23T17:30:29;20.40;99.90